createdAt,value
2022-10-01T00:00:13.066Z,1.13
2022-10-01T00:05:18.178Z,0.60
2022-10-01T00:10:22.176Z,0.80
2022-10-01T00:15:27.515Z,0.90
2022-10-01T00:20:32.395Z,0.60
2022-10-01T00:25:35.977Z,0.80
2022-10-01T00:30:40.514Z,0.80
2022-10-01T00:35:45.995Z,0.97
2022-10-01T00:40:49.492Z,1.10
2022-10-01T00:45:54.864Z,0.77
2022-10-01T00:51:00.444Z,0.90
2022-10-01T00:56:03.974Z,0.80
2022-10-01T01:01:07.583Z,0.60
2022-10-01T01:06:12.523Z,0.50
2022-10-01T01:11:25.854Z,0.50
2022-10-01T01:16:34.406Z,0.63
2022-10-01T01:21:44.357Z,0.97
2022-10-01T01:27:03.345Z,0.50
2022-10-01T01:32:22.755Z,0.87
2022-10-01T01:37:29.695Z,0.70
2022-10-01T01:42:36.749Z,0.90
2022-10-01T01:47:43.601Z,0.80
2022-10-01T01:52:47.165Z,0.90
2022-10-01T01:57:51.339Z,0.70
2022-10-01T02:02:59.129Z,1.13
2022-10-01T02:08:26.428Z,1.10
2022-10-01T02:13:41.313Z,0.90
2022-10-01T02:18:51.252Z,1.03
2022-10-01T02:23:59.620Z,1.07
2022-10-01T02:29:08.100Z,1.27
2022-10-01T02:34:19.950Z,1.10
2022-10-01T02:39:26.860Z,1.20
2022-10-01T02:44:37.988Z,1.27
2022-10-01T02:49:43.431Z,1.00
2022-10-01T02:54:52.863Z,0.90
2022-10-01T02:59:59.115Z,0.80
2022-10-01T03:05:04.501Z,0.70
2022-10-01T03:10:09.289Z,0.87
2022-10-01T03:15:13.238Z,0.80
2022-10-01T03:20:18.286Z,0.80
2022-10-01T03:25:21.938Z,0.87
2022-10-01T03:30:30.344Z,0.70
2022-10-01T03:35:35.261Z,0.80
2022-10-01T03:40:39.044Z,0.60
2022-10-01T03:45:42.674Z,0.60
2022-10-01T03:50:55.650Z,0.60
2022-10-01T03:55:59.803Z,0.70
2022-10-01T04:01:03.387Z,0.70
2022-10-01T04:06:08.613Z,0.90
2022-10-01T04:11:12.182Z,0.67
2022-10-01T04:16:16.630Z,0.90
2022-10-01T04:21:21.833Z,0.77
2022-10-01T04:26:25.992Z,0.70
2022-10-01T04:31:34.844Z,0.57
2022-10-01T04:36:40.345Z,0.70
2022-10-01T04:41:43.889Z,0.70
2022-10-01T04:46:47.462Z,0.67
2022-10-01T04:51:52.616Z,0.70
2022-10-01T04:56:58.236Z,0.40
2022-10-01T05:02:01.830Z,0.30
2022-10-01T05:07:06.941Z,0.30
2022-10-01T05:12:10.474Z,0.27
2022-10-01T05:17:18.173Z,0.10
2022-10-01T05:22:24.303Z,0.30
2022-10-01T05:27:28.364Z,0.20
2022-10-01T05:32:32.192Z,0.30
2022-10-01T05:37:37.858Z,0.20
2022-10-01T05:42:46.958Z,0.10
2022-10-01T05:47:57.202Z,0.20
2022-10-01T05:53:02.793Z,0.27
2022-10-01T05:58:07.859Z,0.20
2022-10-01T06:03:13.437Z,0.10
2022-10-01T06:08:18.445Z,0.10
2022-10-01T06:13:21.921Z,0.10
2022-10-01T06:18:25.463Z,0.10
2022-10-01T06:23:30.429Z,0.20
2022-10-01T06:28:34.420Z,0.10
2022-10-01T06:33:37.935Z,0.20
2022-10-01T06:38:43.307Z,0.10
2022-10-01T06:43:46.831Z,0.10
2022-10-01T06:48:50.338Z,0.10
2022-10-01T06:53:55.235Z,0.10
2022-10-01T06:58:58.747Z,0.03
2022-10-01T07:04:02.723Z,0.10
2022-10-01T07:09:07.633Z,0.00
2022-10-01T07:14:11.298Z,0.10
2022-10-01T07:19:14.928Z,0.10
2022-10-01T07:24:20.183Z,0.10
2022-10-01T07:29:24.200Z,0.10
2022-10-01T07:34:27.953Z,0.10
2022-10-01T07:39:33.100Z,0.10
2022-10-01T07:44:36.640Z,0.20
2022-10-01T07:49:40.249Z,0.10
2022-10-01T07:54:45.228Z,0.20
2022-10-01T07:59:52.276Z,0.20
2022-10-01T08:05:15.980Z,0.20
2022-10-01T08:10:23.231Z,0.33
2022-10-01T08:15:26.813Z,0.43
2022-10-01T08:20:30.413Z,0.40
2022-10-01T08:25:35.823Z,0.50
2022-10-01T08:30:41.121Z,0.40
2022-10-01T08:35:44.765Z,0.60
2022-10-01T08:40:51.958Z,0.40
2022-10-01T08:46:00.486Z,0.33
2022-10-01T08:51:09.131Z,0.30
2022-10-01T08:56:22.719Z,0.20
2022-10-01T09:01:26.628Z,0.10
2022-10-01T09:06:30.551Z,0.10
2022-10-01T09:11:45.420Z,0.10
2022-10-01T09:16:55.888Z,0.10
2022-10-01T09:22:03.209Z,0.60
2022-10-01T09:27:13.897Z,0.40
2022-10-01T09:32:23.336Z,0.30
2022-10-01T09:37:33.501Z,0.20
2022-10-01T09:42:38.357Z,0.10
2022-10-01T09:47:43.650Z,0.20
2022-10-01T09:52:51.126Z,0.10
2022-10-01T09:58:02.584Z,0.17
2022-10-01T10:03:06.322Z,0.20
2022-10-01T10:08:14.181Z,0.30
2022-10-01T10:13:26.578Z,0.20
2022-10-01T10:18:34.551Z,0.30
2022-10-01T10:23:48.346Z,0.30
2022-10-01T10:28:53.344Z,0.40
2022-10-01T10:34:03.929Z,0.43
2022-10-01T10:39:16.203Z,0.53
2022-10-01T10:44:24.619Z,0.40
2022-10-01T10:49:31.215Z,0.50
2022-10-01T10:54:37.563Z,0.30
2022-10-01T10:59:42.507Z,0.40
2022-10-01T11:04:47.503Z,0.30
2022-10-01T11:10:15.597Z,0.30
2022-10-01T11:15:43.274Z,0.30
2022-10-01T11:20:53.907Z,0.40
2022-10-01T11:26:10.981Z,0.40
2022-10-01T11:31:25.114Z,0.30
2022-10-01T11:36:34.753Z,0.40
2022-10-01T11:41:41.388Z,0.40
2022-10-01T11:46:58.445Z,0.60
2022-10-01T11:52:11.438Z,0.50
2022-10-01T11:57:35.908Z,0.30
2022-10-01T12:02:48.881Z,0.40
2022-10-01T12:07:58.051Z,0.43
2022-10-01T12:13:09.017Z,0.67
2022-10-01T12:18:21.054Z,0.40
2022-10-01T12:23:29.894Z,0.50
2022-10-01T12:28:39.057Z,0.40
2022-10-01T12:34:12.457Z,0.40
2022-10-01T12:39:34.195Z,0.40
2022-10-01T12:44:51.523Z,0.67
2022-10-01T12:50:04.365Z,0.33
2022-10-01T12:55:32.139Z,0.40
2022-10-01T13:00:42.912Z,0.20
2022-10-01T13:06:00.295Z,0.20
2022-10-01T13:11:13.261Z,0.30
2022-10-01T13:16:25.501Z,0.30
2022-10-01T13:21:54.160Z,0.20
2022-10-01T13:27:02.685Z,0.20
2022-10-01T13:32:27.085Z,0.40
2022-10-01T13:37:37.552Z,0.40
2022-10-01T13:42:46.203Z,0.40
2022-10-01T13:47:50.230Z,0.40
2022-10-01T13:53:07.082Z,0.40
2022-10-01T13:58:24.258Z,0.40
2022-10-01T14:03:39.043Z,0.30
2022-10-01T14:08:47.318Z,0.50
2022-10-01T14:14:10.579Z,0.50
2022-10-01T14:19:19.902Z,0.40
2022-10-01T14:24:32.090Z,0.60
2022-10-01T14:29:46.604Z,0.40
2022-10-01T14:35:04.132Z,0.37
2022-10-01T14:40:17.866Z,0.70
2022-10-01T14:45:22.084Z,0.40
2022-10-01T14:50:25.569Z,0.40
2022-10-01T14:55:31.601Z,0.80
2022-10-01T15:00:35.527Z,0.60
2022-10-01T15:05:39.101Z,0.70
2022-10-01T15:10:48.756Z,0.80
2022-10-01T15:15:53.251Z,0.60
2022-10-01T15:20:59.716Z,0.63
2022-10-01T15:26:09.449Z,0.60
2022-10-01T15:31:13.366Z,0.70
2022-10-01T15:36:19.281Z,0.40
2022-10-01T15:41:32.866Z,0.70
2022-10-01T15:46:37.168Z,0.60
2022-10-01T15:52:06.987Z,0.37
2022-10-01T15:57:18.688Z,0.60
2022-10-01T16:02:27.223Z,0.70
2022-10-01T16:07:34.742Z,0.70
2022-10-01T16:12:39.802Z,0.83
2022-10-01T16:17:55.477Z,0.63
2022-10-01T16:23:35.415Z,0.50
2022-10-01T16:28:40.421Z,0.90
2022-10-01T16:33:43.957Z,0.80
2022-10-01T16:38:48.103Z,0.80
2022-10-01T16:43:55.741Z,0.77
2022-10-01T16:48:59.738Z,0.40
2022-10-01T16:54:04.504Z,0.40
2022-10-01T16:59:09.695Z,0.60
2022-10-01T17:04:14.438Z,0.40
2022-10-01T17:09:18.006Z,0.60
2022-10-01T17:14:23.409Z,0.47
2022-10-01T17:19:26.933Z,0.50
2022-10-01T17:24:31.355Z,0.40
2022-10-01T17:29:37.116Z,0.30
2022-10-01T17:34:40.661Z,0.70
2022-10-01T17:39:44.160Z,0.43
2022-10-01T17:44:49.782Z,0.40
2022-10-01T17:49:53.390Z,0.40
2022-10-01T17:54:57.047Z,0.30
2022-10-01T18:00:02.299Z,0.40
2022-10-01T18:05:15.494Z,0.40
2022-10-01T18:10:19.106Z,0.50
2022-10-01T18:15:24.182Z,0.40
2022-10-01T18:20:28.013Z,0.40
2022-10-01T18:25:31.515Z,0.50
2022-10-01T18:30:36.434Z,0.60
2022-10-01T18:35:44.016Z,0.70
2022-10-01T18:40:52.656Z,0.50
2022-10-01T18:46:14.522Z,0.53
2022-10-01T18:51:26.857Z,0.60
2022-10-01T18:56:34.063Z,0.67
2022-10-01T19:01:47.869Z,0.37
2022-10-01T19:07:13.048Z,0.53
2022-10-01T19:12:40.766Z,0.37
2022-10-01T19:17:55.697Z,0.57
2022-10-01T19:23:18.112Z,0.60
2022-10-01T19:28:38.999Z,0.30
2022-10-01T19:33:47.893Z,0.50
2022-10-01T19:38:53.309Z,0.57
2022-10-01T19:44:01.681Z,0.53
2022-10-01T19:49:18.383Z,0.47
2022-10-01T19:54:25.978Z,0.53
2022-10-01T19:59:30.889Z,0.40
2022-10-01T20:04:39.101Z,0.40
2022-10-01T20:09:46.137Z,0.37
2022-10-01T20:15:11.289Z,0.60
2022-10-01T20:20:20.940Z,0.40
2022-10-01T20:25:33.258Z,0.53
2022-10-01T20:30:50.730Z,0.60
2022-10-01T20:36:02.837Z,0.50
2022-10-01T20:41:14.434Z,0.40
2022-10-01T20:46:33.390Z,0.30
2022-10-01T20:51:45.962Z,0.57
2022-10-01T20:57:00.945Z,0.60
2022-10-01T21:02:24.148Z,0.43
2022-10-01T21:07:37.152Z,0.50
2022-10-01T21:12:45.780Z,0.47
2022-10-01T21:18:00.786Z,0.70
2022-10-01T21:23:18.913Z,0.40
2022-10-01T21:28:38.836Z,0.40
2022-10-01T21:33:51.907Z,0.50
2022-10-01T21:39:01.754Z,0.60
2022-10-01T21:44:20.977Z,0.43
2022-10-01T21:49:37.159Z,0.60
2022-10-01T21:55:04.014Z,0.60
2022-10-01T22:00:18.002Z,0.50
2022-10-01T22:05:29.447Z,0.40
2022-10-01T22:10:39.666Z,0.50
2022-10-01T22:15:45.964Z,0.60
2022-10-01T22:20:50.532Z,0.83
2022-10-01T22:25:59.542Z,0.60
2022-10-01T22:31:05.771Z,0.70
2022-10-01T22:36:12.708Z,0.50
2022-10-01T22:41:23.604Z,0.53
2022-10-01T22:46:57.065Z,0.60
2022-10-01T22:52:11.606Z,0.70
2022-10-01T22:57:39.513Z,0.70
2022-10-01T23:02:49.820Z,0.53
2022-10-01T23:08:02.107Z,0.47
2022-10-01T23:13:18.297Z,0.43
2022-10-01T23:18:35.113Z,0.50
2022-10-01T23:23:41.256Z,0.40
2022-10-01T23:29:00.620Z,0.40
2022-10-01T23:34:20.638Z,0.40
2022-10-01T23:39:46.270Z,0.37
2022-10-01T23:45:03.383Z,0.47
2022-10-01T23:50:08.946Z,0.30
2022-10-01T23:55:36.197Z,0.50
